createdAt,value
2023-02-15T00:00:26.293Z,70.62
2023-02-15T00:02:56.341Z,70.87
2023-02-15T00:05:24.724Z,70.96
2023-02-15T00:07:53.091Z,70.93
2023-02-15T00:10:21.389Z,70.50
2023-02-15T00:12:57.708Z,70.54
2023-02-15T00:15:26.968Z,70.53
2023-02-15T00:17:55.285Z,70.34
2023-02-15T00:20:23.711Z,70.41
2023-02-15T00:22:52.094Z,70.36
2023-02-15T00:25:20.477Z,70.42
2023-02-15T00:27:48.786Z,70.42
2023-02-15T00:30:18.731Z,70.61
2023-02-15T00:32:49.476Z,70.70
2023-02-15T00:35:18.222Z,70.81
2023-02-15T00:37:46.540Z,70.82
2023-02-15T00:40:15.079Z,71.04
2023-02-15T00:42:43.395Z,70.95
2023-02-15T00:45:11.750Z,70.98
2023-02-15T00:47:41.465Z,71.18
2023-02-15T00:50:10.307Z,71.35
2023-02-15T00:52:38.601Z,71.37
2023-02-15T00:55:07.842Z,71.29
2023-02-15T00:57:36.081Z,71.15
2023-02-15T01:00:05.180Z,71.07
2023-02-15T01:02:36.467Z,70.84
2023-02-15T01:05:07.188Z,71.03
2023-02-15T01:07:35.527Z,71.07
2023-02-15T01:10:04.064Z,71.09
2023-02-15T01:12:32.562Z,71.15
2023-02-15T01:15:01.188Z,71.17
2023-02-15T01:17:29.713Z,71.01
2023-02-15T01:19:58.027Z,71.14
2023-02-15T01:22:27.791Z,70.88
2023-02-15T01:24:56.145Z,70.95
2023-02-15T01:27:24.517Z,70.91
2023-02-15T01:29:52.920Z,70.91
2023-02-15T01:32:21.429Z,70.93
2023-02-15T01:34:49.723Z,71.00
2023-02-15T01:37:20.310Z,71.02
2023-02-15T01:39:50.158Z,71.05
2023-02-15T01:42:23.893Z,71.09
2023-02-15T01:44:54.336Z,71.16
2023-02-15T01:47:30.366Z,71.01
2023-02-15T01:50:05.828Z,71.13
2023-02-15T01:52:36.766Z,71.13
2023-02-15T01:55:08.075Z,71.07
2023-02-15T01:57:37.532Z,71.14
2023-02-15T02:00:08.291Z,71.43
2023-02-15T02:02:37.024Z,71.32
2023-02-15T02:05:08.838Z,71.30
2023-02-15T02:07:40.807Z,71.41
2023-02-15T02:10:12.836Z,71.35
2023-02-15T02:12:47.640Z,71.61
2023-02-15T02:15:17.078Z,71.43
2023-02-15T02:18:01.525Z,71.60
2023-02-15T02:20:58.900Z,71.61
2023-02-15T02:23:41.472Z,71.37
2023-02-15T02:26:38.734Z,71.41
2023-02-15T02:29:43.941Z,71.42
2023-02-15T02:32:44.873Z,71.15
2023-02-15T02:35:20.041Z,71.14
2023-02-15T02:37:56.930Z,71.17
2023-02-15T02:40:32.374Z,71.11
2023-02-15T02:43:05.105Z,71.41
2023-02-15T02:45:39.240Z,71.41
2023-02-15T02:48:12.530Z,71.56
2023-02-15T02:50:43.402Z,71.51
2023-02-15T02:53:12.017Z,71.44
2023-02-15T02:55:43.893Z,71.45
2023-02-15T02:58:19.151Z,71.52
2023-02-15T03:00:50.897Z,71.58
2023-02-15T03:03:26.428Z,71.61
2023-02-15T03:06:01.367Z,71.86
2023-02-15T03:08:38.179Z,71.61
2023-02-15T03:11:07.282Z,71.54
2023-02-15T03:13:36.459Z,71.69
2023-02-15T03:16:29.674Z,71.69
2023-02-15T03:19:03.576Z,71.49
2023-02-15T03:21:41.254Z,71.35
2023-02-15T03:24:15.400Z,71.25
2023-02-15T03:26:47.929Z,71.17
2023-02-15T03:29:18.021Z,71.29
2023-02-15T03:31:51.994Z,71.37
2023-02-15T03:34:20.742Z,71.46
2023-02-15T03:36:55.353Z,71.48
2023-02-15T03:39:31.155Z,71.58
2023-02-15T03:42:06.119Z,71.43
2023-02-15T03:44:41.581Z,71.64
2023-02-15T03:47:15.541Z,71.67
2023-02-15T03:49:49.283Z,71.63
2023-02-15T03:52:19.012Z,71.52
2023-02-15T03:54:47.998Z,71.96
2023-02-15T03:57:37.670Z,71.83
2023-02-15T04:00:30.991Z,71.84
2023-02-15T04:03:12.268Z,71.82
2023-02-15T04:05:41.224Z,71.73
2023-02-15T04:08:11.689Z,71.75
2023-02-15T04:10:56.041Z,71.89
2023-02-15T04:13:26.233Z,71.83
2023-02-15T04:16:04.886Z,71.90
2023-02-15T04:18:52.358Z,72.00
2023-02-15T04:21:39.811Z,72.02
2023-02-15T04:24:27.670Z,71.76
2023-02-15T04:26:56.781Z,72.27
2023-02-15T04:29:26.948Z,72.20
2023-02-15T04:31:56.946Z,72.16
2023-02-15T04:34:26.122Z,72.43
2023-02-15T04:36:54.601Z,72.59
2023-02-15T04:39:24.358Z,72.70
2023-02-15T04:41:52.754Z,72.57
2023-02-15T04:44:21.100Z,72.35
2023-02-15T04:46:49.527Z,72.87
2023-02-15T04:49:17.844Z,72.94
2023-02-15T04:51:46.206Z,72.58
2023-02-15T04:54:14.595Z,72.67
2023-02-15T04:56:44.363Z,72.73
2023-02-15T04:59:13.114Z,72.94
2023-02-15T05:01:41.584Z,72.86
2023-02-15T05:04:10.193Z,72.74
2023-02-15T05:06:38.682Z,72.75
2023-02-15T05:09:07.204Z,72.47
2023-02-15T05:11:35.895Z,72.45
2023-02-15T05:14:05.874Z,72.28
2023-02-15T05:16:41.968Z,72.42
2023-02-15T05:19:10.288Z,72.47
2023-02-15T05:21:38.608Z,72.38
2023-02-15T05:24:28.568Z,72.24
2023-02-15T05:27:14.344Z,72.20
2023-02-15T05:29:44.092Z,72.04
2023-02-15T05:32:15.138Z,72.10
2023-02-15T05:34:43.673Z,72.25
2023-02-15T05:37:12.020Z,72.22
2023-02-15T05:39:40.359Z,72.20
2023-02-15T05:42:08.699Z,72.22
2023-02-15T05:44:37.061Z,72.11
2023-02-15T05:47:08.180Z,72.08
2023-02-15T05:49:37.017Z,72.27
2023-02-15T05:52:05.909Z,71.94
2023-02-15T05:54:34.245Z,72.11
2023-02-15T05:57:02.781Z,72.18
2023-02-15T05:59:31.127Z,72.39
2023-02-15T06:01:59.472Z,72.30
2023-02-15T06:04:29.238Z,72.23
2023-02-15T06:06:57.545Z,72.42
2023-02-15T06:09:25.975Z,72.51
2023-02-15T06:11:54.418Z,72.55
2023-02-15T06:14:22.712Z,72.55
2023-02-15T06:16:50.999Z,72.57
2023-02-15T06:19:20.002Z,72.77
2023-02-15T06:21:49.679Z,72.74
2023-02-15T06:24:18.081Z,72.83
2023-02-15T06:26:46.507Z,72.58
2023-02-15T06:29:15.433Z,72.77
2023-02-15T06:31:43.840Z,72.67
2023-02-15T06:34:12.481Z,72.45
2023-02-15T06:36:40.818Z,72.37
2023-02-15T06:39:10.656Z,73.00
2023-02-15T06:41:39.045Z,73.28
2023-02-15T06:44:08.721Z,73.05
2023-02-15T06:46:38.428Z,72.85
2023-02-15T06:49:06.746Z,72.67
2023-02-15T06:51:35.662Z,72.83
2023-02-15T06:54:04.108Z,72.78
2023-02-15T06:56:33.886Z,72.63
2023-02-15T06:59:02.303Z,72.54
2023-02-15T07:01:30.682Z,72.62
2023-02-15T07:03:59.073Z,72.25
2023-02-15T07:06:27.490Z,72.25
2023-02-15T07:08:55.863Z,72.25
2023-02-15T07:11:41.643Z,72.38
2023-02-15T07:14:11.501Z,72.15
2023-02-15T07:16:39.912Z,72.26
2023-02-15T07:19:09.099Z,72.23
2023-02-15T07:21:38.084Z,72.01
2023-02-15T07:24:06.899Z,72.18
2023-02-15T07:26:35.243Z,72.00
2023-02-15T07:29:03.596Z,72.37
2023-02-15T07:31:33.438Z,72.19
2023-02-15T07:34:01.764Z,72.11
2023-02-15T07:36:30.117Z,72.19
2023-02-15T07:38:58.436Z,72.25
2023-02-15T07:41:26.758Z,72.32
2023-02-15T07:43:57.784Z,72.44
2023-02-15T07:46:26.182Z,72.59
2023-02-15T07:48:56.043Z,72.59
2023-02-15T07:51:24.451Z,72.44
2023-02-15T07:53:56.239Z,72.58
2023-02-15T07:56:24.784Z,72.78
2023-02-15T07:58:53.229Z,72.48
2023-02-15T08:01:25.434Z,72.53
2023-02-15T08:03:56.008Z,72.23
2023-02-15T08:06:26.515Z,72.27
2023-02-15T08:08:55.314Z,71.98
2023-02-15T08:11:30.187Z,71.98
2023-02-15T08:14:00.992Z,72.12
2023-02-15T08:16:33.381Z,72.04
2023-02-15T08:19:05.414Z,71.84
2023-02-15T08:21:35.628Z,71.71
2023-02-15T08:24:05.051Z,71.53
2023-02-15T08:26:34.137Z,71.60
2023-02-15T08:29:03.266Z,71.49
2023-02-15T08:31:31.891Z,71.29
2023-02-15T08:34:00.352Z,71.43
2023-02-15T08:36:33.579Z,71.46
2023-02-15T08:39:03.973Z,71.21
2023-02-15T08:41:33.692Z,71.44
2023-02-15T08:44:05.833Z,71.21
2023-02-15T08:46:36.404Z,71.00
2023-02-15T08:49:05.696Z,70.90
2023-02-15T08:51:37.549Z,70.34
2023-02-15T08:54:08.369Z,70.57
2023-02-15T08:56:39.124Z,70.85
2023-02-15T08:59:08.894Z,71.43
2023-02-15T09:01:37.531Z,71.24
2023-02-15T09:04:09.635Z,71.24
2023-02-15T09:06:40.402Z,70.71
2023-02-15T09:09:09.491Z,70.63
2023-02-15T09:11:40.231Z,70.80
2023-02-15T09:14:10.675Z,70.50
2023-02-15T09:16:40.053Z,69.97
2023-02-15T09:19:08.885Z,70.20
2023-02-15T09:21:40.141Z,70.40
2023-02-15T09:24:14.746Z,71.01
2023-02-15T09:26:44.875Z,70.76
2023-02-15T09:29:14.594Z,71.32
2023-02-15T09:31:45.588Z,71.20
2023-02-15T09:34:19.977Z,71.29
2023-02-15T09:36:50.439Z,71.83
2023-02-15T09:39:21.323Z,71.89
2023-02-15T09:42:11.865Z,72.25
2023-02-15T09:45:06.079Z,71.87
2023-02-15T09:48:07.112Z,71.51
2023-02-15T09:50:44.881Z,71.72
2023-02-15T09:53:35.364Z,71.26
2023-02-15T09:56:12.243Z,71.47
2023-02-15T09:58:49.482Z,71.72
2023-02-15T10:01:27.355Z,71.79
2023-02-15T10:04:07.480Z,71.50
2023-02-15T10:06:42.916Z,72.29
2023-02-15T10:09:29.811Z,72.32
2023-02-15T10:12:11.111Z,72.09
2023-02-15T10:14:54.698Z,72.07
2023-02-15T10:17:35.110Z,71.97
2023-02-15T10:20:19.094Z,71.55
2023-02-15T10:23:10.440Z,71.64
2023-02-15T10:25:47.395Z,72.29
2023-02-15T10:28:20.251Z,72.25
2023-02-15T10:30:51.455Z,71.84
2023-02-15T10:33:37.461Z,71.71
2023-02-15T10:36:19.188Z,71.54
2023-02-15T10:38:54.142Z,71.42
2023-02-15T10:41:35.336Z,70.94
2023-02-15T10:44:22.760Z,71.11
2023-02-15T10:47:04.749Z,70.86
2023-02-15T10:49:49.103Z,70.56
2023-02-15T10:52:28.697Z,71.09
2023-02-15T10:55:08.584Z,71.11
2023-02-15T10:57:50.758Z,70.82
2023-02-15T11:00:26.970Z,70.85
2023-02-15T11:03:17.578Z,70.67
2023-02-15T11:05:59.765Z,70.58
2023-02-15T11:08:31.576Z,70.20
2023-02-15T11:11:04.880Z,69.67
2023-02-15T11:13:40.371Z,69.72
2023-02-15T11:16:14.050Z,69.64
2023-02-15T11:18:47.505Z,69.44
2023-02-15T11:21:22.697Z,69.14
2023-02-15T11:23:51.999Z,68.90
2023-02-15T11:26:29.027Z,68.95
2023-02-15T11:29:03.732Z,68.88
2023-02-15T11:31:43.599Z,68.98
2023-02-15T11:34:19.874Z,68.90
2023-02-15T11:36:52.300Z,68.47
2023-02-15T11:39:24.084Z,68.67
2023-02-15T11:41:55.423Z,68.40
2023-02-15T11:44:30.024Z,67.75
2023-02-15T11:46:58.518Z,67.94
2023-02-15T11:49:31.715Z,67.40
2023-02-15T11:52:02.274Z,67.54
2023-02-15T11:54:33.476Z,67.69
2023-02-15T11:57:07.438Z,67.44
2023-02-15T11:59:42.353Z,66.77
2023-02-15T12:02:18.957Z,66.69
2023-02-15T12:04:54.636Z,66.66
2023-02-15T12:07:27.079Z,66.08
2023-02-15T12:10:05.318Z,66.29
2023-02-15T12:12:35.870Z,65.63
2023-02-15T12:15:07.224Z,65.73
2023-02-15T12:17:40.258Z,65.33
2023-02-15T12:20:26.717Z,64.43
2023-02-15T12:23:02.971Z,65.07
2023-02-15T12:25:37.871Z,64.72
2023-02-15T12:28:18.989Z,64.73
2023-02-15T12:30:48.828Z,64.82
2023-02-15T12:33:24.523Z,64.42
2023-02-15T12:36:00.623Z,64.04
2023-02-15T12:38:30.430Z,63.37
2023-02-15T12:41:00.785Z,63.26
2023-02-15T12:43:33.976Z,62.45
2023-02-15T12:46:23.885Z,61.94
2023-02-15T12:49:09.126Z,61.54
2023-02-15T12:51:49.656Z,61.59
2023-02-15T12:54:30.708Z,61.71
2023-02-15T12:56:59.550Z,61.39
2023-02-15T12:59:38.654Z,61.37
2023-02-15T13:02:17.554Z,60.80
2023-02-15T13:04:51.550Z,60.98
2023-02-15T13:07:20.290Z,61.06
2023-02-15T13:09:49.884Z,60.49
2023-02-15T13:12:23.121Z,60.48
2023-02-15T13:14:55.650Z,60.26
2023-02-15T13:17:30.497Z,59.81
2023-02-15T13:20:03.756Z,60.05
2023-02-15T13:22:43.146Z,60.22
2023-02-15T13:25:21.675Z,60.00
2023-02-15T13:27:54.748Z,60.24
2023-02-15T13:30:27.564Z,59.91
2023-02-15T13:33:02.437Z,59.74
2023-02-15T13:35:40.267Z,59.63
2023-02-15T13:38:21.233Z,59.50
2023-02-15T13:40:55.629Z,59.45
2023-02-15T13:43:37.476Z,58.73
2023-02-15T13:46:19.819Z,58.60
2023-02-15T13:48:58.834Z,58.54
2023-02-15T13:51:37.461Z,58.77
2023-02-15T13:54:25.318Z,58.38
2023-02-15T13:57:04.004Z,58.41
2023-02-15T13:59:57.250Z,57.67
2023-02-15T14:02:44.830Z,57.69
2023-02-15T14:05:39.823Z,57.61
2023-02-15T14:08:16.111Z,58.00
2023-02-15T14:10:58.734Z,57.77
2023-02-15T14:13:58.781Z,57.25
2023-02-15T14:16:36.571Z,57.54
2023-02-15T14:19:16.696Z,57.14
2023-02-15T14:21:50.708Z,57.18
2023-02-15T14:24:29.420Z,56.92
2023-02-15T14:27:06.569Z,57.08
2023-02-15T14:29:48.571Z,56.54
2023-02-15T14:32:24.414Z,56.81
2023-02-15T14:34:55.715Z,56.61
2023-02-15T14:37:37.226Z,55.75
2023-02-15T14:40:30.214Z,55.60
2023-02-15T14:43:03.157Z,55.29
2023-02-15T14:45:43.882Z,54.64
2023-02-15T14:48:18.227Z,54.36
2023-02-15T14:50:48.379Z,54.23
2023-02-15T14:53:24.458Z,53.83
2023-02-15T14:56:09.025Z,53.08
2023-02-15T14:58:37.840Z,53.74
2023-02-15T15:01:09.774Z,53.89
2023-02-15T15:03:45.318Z,53.52
2023-02-15T15:06:26.679Z,52.93
2023-02-15T15:09:01.505Z,53.90
2023-02-15T15:11:45.072Z,53.56
2023-02-15T15:14:41.359Z,53.98
2023-02-15T15:17:13.882Z,54.98
2023-02-15T15:20:00.619Z,54.43
2023-02-15T15:22:30.614Z,55.32
2023-02-15T15:25:00.953Z,55.39
2023-02-15T15:27:54.388Z,54.67
2023-02-15T15:30:51.985Z,54.82
2023-02-15T15:33:54.688Z,55.08
2023-02-15T15:37:11.893Z,55.17
2023-02-15T15:40:22.645Z,55.22
2023-02-15T15:43:12.985Z,56.01
2023-02-15T15:46:08.729Z,55.41
2023-02-15T15:48:39.036Z,55.83
2023-02-15T15:51:16.581Z,55.81
2023-02-15T15:53:49.476Z,56.08
2023-02-15T15:56:22.700Z,56.25
2023-02-15T15:58:56.225Z,56.21
2023-02-15T16:01:30.031Z,56.01
2023-02-15T16:04:01.677Z,56.06
2023-02-15T16:06:36.478Z,56.34
2023-02-15T16:09:17.747Z,55.94
2023-02-15T16:11:47.633Z,56.71
2023-02-15T16:14:22.585Z,56.32
2023-02-15T16:16:54.418Z,56.60
2023-02-15T16:19:28.188Z,57.00
2023-02-15T16:21:59.582Z,56.68
2023-02-15T16:24:44.542Z,57.03
2023-02-15T16:27:28.401Z,57.43
2023-02-15T16:29:58.234Z,57.47
2023-02-15T16:32:29.114Z,58.25
2023-02-15T16:34:59.101Z,58.17
2023-02-15T16:37:29.450Z,58.59
2023-02-15T16:39:58.212Z,58.47
2023-02-15T16:42:27.081Z,58.92
2023-02-15T16:45:03.021Z,59.09
2023-02-15T16:47:36.009Z,58.86
2023-02-15T16:50:06.269Z,58.75
2023-02-15T16:52:36.334Z,59.55
2023-02-15T16:55:07.679Z,59.14
2023-02-15T16:57:40.120Z,59.14
2023-02-15T17:00:21.541Z,59.55
2023-02-15T17:02:59.847Z,59.63
2023-02-15T17:05:33.726Z,60.04
2023-02-15T17:08:16.951Z,60.04
2023-02-15T17:11:02.528Z,59.87
2023-02-15T17:13:31.748Z,60.17
2023-02-15T17:16:30.511Z,60.30
2023-02-15T17:19:00.368Z,60.15
2023-02-15T17:21:34.888Z,60.23
2023-02-15T17:24:05.214Z,60.18
2023-02-15T17:26:36.804Z,60.53
2023-02-15T17:29:22.496Z,60.56
2023-02-15T17:31:54.277Z,60.52
2023-02-15T17:34:44.795Z,60.87
2023-02-15T17:37:14.765Z,60.41
2023-02-15T17:39:43.439Z,60.95
2023-02-15T17:42:11.821Z,60.92
2023-02-15T17:44:40.226Z,61.37
2023-02-15T17:47:16.947Z,61.41
2023-02-15T17:49:45.656Z,61.79
2023-02-15T17:52:15.013Z,62.21
2023-02-15T17:55:01.431Z,62.34
2023-02-15T17:57:31.107Z,61.83
2023-02-15T18:00:17.029Z,61.81
2023-02-15T18:03:06.045Z,61.69
2023-02-15T18:05:51.870Z,61.55
2023-02-15T18:08:45.164Z,61.24
2023-02-15T18:11:31.707Z,61.68
2023-02-15T18:14:01.486Z,61.55
2023-02-15T18:16:33.254Z,61.77
2023-02-15T18:19:04.819Z,62.03
2023-02-15T18:21:34.361Z,61.83
2023-02-15T18:24:02.816Z,62.31
2023-02-15T18:26:31.340Z,62.12
2023-02-15T18:29:00.114Z,61.82
2023-02-15T18:31:28.767Z,61.98
2023-02-15T18:33:59.637Z,62.17
2023-02-15T18:36:33.436Z,62.22
2023-02-15T18:39:07.758Z,62.25
2023-02-15T18:41:37.355Z,62.32
2023-02-15T18:44:12.730Z,62.40
2023-02-15T18:46:41.038Z,62.82
2023-02-15T18:49:09.443Z,62.36
2023-02-15T18:51:40.231Z,62.96
2023-02-15T18:54:18.186Z,62.49
2023-02-15T18:56:50.119Z,63.05
2023-02-15T18:59:19.019Z,62.91
2023-02-15T19:01:47.366Z,63.21
2023-02-15T19:04:15.728Z,63.40
2023-02-15T19:06:48.829Z,63.46
2023-02-15T19:09:20.842Z,62.92
2023-02-15T19:11:52.574Z,63.75
2023-02-15T19:14:29.560Z,63.41
2023-02-15T19:16:59.223Z,63.77
2023-02-15T19:19:28.613Z,63.96
2023-02-15T19:21:58.332Z,64.12
2023-02-15T19:24:38.098Z,63.89
2023-02-15T19:27:08.588Z,63.56
2023-02-15T19:29:38.609Z,63.82
2023-02-15T19:32:08.524Z,63.93
2023-02-15T19:34:38.140Z,63.81
2023-02-15T19:37:17.243Z,63.60
2023-02-15T19:39:45.932Z,63.92
2023-02-15T19:42:22.890Z,63.78
2023-02-15T19:44:54.609Z,63.34
2023-02-15T19:47:23.066Z,63.54
2023-02-15T19:49:51.746Z,63.71
2023-02-15T19:52:24.243Z,63.81
2023-02-15T19:54:55.632Z,63.20
2023-02-15T19:57:24.917Z,63.36
2023-02-15T19:59:53.274Z,63.93
2023-02-15T20:02:21.764Z,64.03
2023-02-15T20:04:50.259Z,63.88
2023-02-15T20:07:27.101Z,64.02
2023-02-15T20:09:55.565Z,63.99
2023-02-15T20:12:26.004Z,64.11
2023-02-15T20:14:54.520Z,64.00
2023-02-15T20:17:23.226Z,63.80
2023-02-15T20:19:51.640Z,64.27
2023-02-15T20:22:25.506Z,64.45
2023-02-15T20:24:56.181Z,63.99
2023-02-15T20:27:25.083Z,63.98
2023-02-15T20:29:56.742Z,63.87
2023-02-15T20:32:26.007Z,64.15
2023-02-15T20:34:54.593Z,63.67
2023-02-15T20:37:28.902Z,64.10
2023-02-15T20:39:57.325Z,63.67
2023-02-15T20:42:25.733Z,64.50
2023-02-15T20:44:54.269Z,64.34
2023-02-15T20:47:22.686Z,64.26
2023-02-15T20:49:51.318Z,64.21
2023-02-15T20:52:21.688Z,64.43
2023-02-15T20:54:51.794Z,63.79
2023-02-15T20:57:20.154Z,64.02
2023-02-15T20:59:48.539Z,64.24
2023-02-15T21:02:20.133Z,64.48
2023-02-15T21:04:49.030Z,64.30
2023-02-15T21:07:18.628Z,64.57
2023-02-15T21:09:47.373Z,64.93
2023-02-15T21:12:18.840Z,64.82
2023-02-15T21:14:47.534Z,64.78
2023-02-15T21:17:17.609Z,64.53
2023-02-15T21:19:46.241Z,65.02
2023-02-15T21:22:16.736Z,65.23
2023-02-15T21:24:50.403Z,65.49
2023-02-15T21:27:20.865Z,65.40
2023-02-15T21:29:49.275Z,65.34
2023-02-15T21:32:19.009Z,65.27
2023-02-15T21:34:47.434Z,65.19
2023-02-15T21:37:29.250Z,65.17
2023-02-15T21:39:57.714Z,65.38
2023-02-15T21:42:46.796Z,65.42
2023-02-15T21:45:34.068Z,65.38
2023-02-15T21:48:02.773Z,65.20
2023-02-15T21:50:49.203Z,65.83
2023-02-15T21:53:25.908Z,66.10
2023-02-15T21:55:58.245Z,65.67
2023-02-15T21:58:30.054Z,65.64
2023-02-15T22:01:00.350Z,65.94
2023-02-15T22:03:32.763Z,65.56
2023-02-15T22:06:01.681Z,65.80
2023-02-15T22:08:30.088Z,65.68
2023-02-15T22:10:59.149Z,65.99
2023-02-15T22:13:31.949Z,66.11
2023-02-15T22:16:00.712Z,65.98
2023-02-15T22:18:33.841Z,65.97
2023-02-15T22:21:04.431Z,65.81
2023-02-15T22:23:33.872Z,65.56
2023-02-15T22:26:06.090Z,65.61
2023-02-15T22:28:38.645Z,65.53
2023-02-15T22:31:12.866Z,65.62
2023-02-15T22:33:42.312Z,65.53
2023-02-15T22:36:23.737Z,65.49
2023-02-15T22:38:52.128Z,65.39
2023-02-15T22:41:21.018Z,65.39
2023-02-15T22:43:51.000Z,65.55
2023-02-15T22:46:22.364Z,65.57
2023-02-15T22:48:51.649Z,65.23
2023-02-15T22:51:22.268Z,65.37
2023-02-15T22:53:52.272Z,65.36
2023-02-15T22:56:26.653Z,65.43
2023-02-15T22:59:01.717Z,65.41
2023-02-15T23:01:32.706Z,65.66
2023-02-15T23:04:03.600Z,65.82
2023-02-15T23:06:32.860Z,65.99
2023-02-15T23:09:01.768Z,66.04
2023-02-15T23:11:30.265Z,65.98
2023-02-15T23:14:00.039Z,65.80
2023-02-15T23:16:28.458Z,65.67
2023-02-15T23:19:01.919Z,65.69
2023-02-15T23:21:32.671Z,65.80
2023-02-15T23:24:14.411Z,65.80
2023-02-15T23:26:42.787Z,65.76
2023-02-15T23:29:15.783Z,65.64
2023-02-15T23:31:46.045Z,65.58
2023-02-15T23:34:17.415Z,65.67
2023-02-15T23:36:46.085Z,65.38
2023-02-15T23:39:34.473Z,65.31
2023-02-15T23:42:06.118Z,65.34
2023-02-15T23:44:35.857Z,65.26
2023-02-15T23:47:04.751Z,65.38
2023-02-15T23:49:33.054Z,65.53
2023-02-15T23:52:02.629Z,65.35
2023-02-15T23:54:30.965Z,65.16
2023-02-15T23:57:01.950Z,65.19
2023-02-15T23:59:32.614Z,65.42
